createdAt,value
2017-09-02T00:00:03.720Z,0
2017-09-02T00:00:44.177Z,0
2017-09-02T00:01:24.648Z,0
2017-09-02T00:02:05.101Z,0
2017-09-02T00:02:45.545Z,0
2017-09-02T00:03:25.996Z,0
2017-09-02T00:04:06.452Z,0
2017-09-02T00:04:46.908Z,0
2017-09-02T00:05:27.362Z,0
2017-09-02T00:06:07.868Z,0
2017-09-02T00:06:48.330Z,0
2017-09-02T00:07:28.790Z,0
2017-09-02T00:08:09.381Z,0
2017-09-02T00:08:49.833Z,0
2017-09-02T00:09:30.288Z,0
2017-09-02T00:10:10.741Z,0
2017-09-02T00:10:51.201Z,0
2017-09-02T00:11:31.662Z,0
2017-09-02T00:12:12.131Z,0
2017-09-02T00:12:52.554Z,0
2017-09-02T00:13:33.010Z,0
2017-09-02T00:14:13.464Z,0
2017-09-02T00:14:53.915Z,0
2017-09-02T00:15:34.373Z,0
2017-09-02T00:16:14.813Z,0
2017-09-02T00:16:55.272Z,0
2017-09-02T00:17:35.716Z,0
2017-09-02T00:18:16.173Z,0
2017-09-02T00:18:56.636Z,0
2017-09-02T00:19:37.112Z,0
2017-09-02T00:20:17.566Z,0
2017-09-02T00:20:58.026Z,0
2017-09-02T00:21:38.480Z,0
2017-09-02T00:22:18.935Z,0
2017-09-02T00:22:59.386Z,0
2017-09-02T00:23:39.841Z,0
2017-09-02T00:24:20.296Z,0
2017-09-02T00:25:00.754Z,0
2017-09-02T00:25:41.218Z,0
2017-09-02T00:26:21.672Z,0
2017-09-02T00:27:02.266Z,0
2017-09-02T00:27:42.735Z,0
2017-09-02T00:28:23.187Z,0
2017-09-02T00:29:03.641Z,0
2017-09-02T00:29:44.090Z,0
2017-09-02T00:30:24.544Z,0
2017-09-02T00:31:05.009Z,0
2017-09-02T00:31:45.463Z,0
2017-09-02T00:32:25.995Z,0
2017-09-02T00:33:06.440Z,0
2017-09-02T00:33:46.890Z,0
2017-09-02T00:34:27.364Z,0
2017-09-02T00:35:07.812Z,0
2017-09-02T00:35:48.290Z,0
2017-09-02T00:36:28.726Z,0
2017-09-02T00:37:09.182Z,0
2017-09-02T00:37:49.638Z,0
2017-09-02T00:38:30.088Z,0
2017-09-02T00:39:10.547Z,0
2017-09-02T00:39:51.003Z,0
2017-09-02T00:40:31.455Z,0
2017-09-02T00:41:11.906Z,0
2017-09-02T00:41:52.361Z,0
2017-09-02T00:42:32.817Z,0
2017-09-02T00:43:13.308Z,0
2017-09-02T00:45:51.434Z,0
2017-09-02T00:46:31.916Z,0
2017-09-02T00:47:12.364Z,0
2017-09-02T00:47:52.810Z,0
2017-09-02T00:48:33.257Z,0
2017-09-02T00:49:13.707Z,0
2017-09-02T00:49:54.163Z,0
2017-09-02T00:50:34.613Z,0
2017-09-02T00:51:15.072Z,0
2017-09-02T00:51:55.528Z,0
2017-09-02T00:52:35.980Z,0
2017-09-02T00:53:16.434Z,0
2017-09-02T00:53:56.880Z,0
2017-09-02T00:54:37.335Z,0
2017-09-02T00:55:17.789Z,0
2017-09-02T00:55:58.254Z,0
2017-09-02T00:56:38.705Z,0
2017-09-02T00:57:19.157Z,0
2017-09-02T00:57:59.612Z,0
2017-09-02T00:58:40.069Z,0
2017-09-02T00:59:20.520Z,0
2017-09-02T01:00:01.058Z,0
2017-09-02T01:00:41.510Z,0
2017-09-02T01:01:21.970Z,0
2017-09-02T01:02:02.419Z,0
2017-09-02T01:02:42.869Z,0
2017-09-02T01:03:23.325Z,0
2017-09-02T01:04:03.779Z,0
2017-09-02T01:04:44.236Z,0
2017-09-02T01:05:24.699Z,0
2017-09-02T01:06:05.152Z,0
2017-09-02T01:06:45.606Z,0
2017-09-02T01:07:26.067Z,0
2017-09-02T01:08:06.559Z,0
2017-09-02T01:08:47.015Z,0
2017-09-02T01:09:27.474Z,0
2017-09-02T01:10:08.083Z,0
2017-09-02T01:10:48.534Z,0
2017-09-02T01:11:28.982Z,0
2017-09-02T01:12:09.438Z,0
2017-09-02T01:12:49.891Z,0
2017-09-02T01:13:30.346Z,0
2017-09-02T01:14:10.800Z,0
2017-09-02T01:14:51.253Z,0
2017-09-02T01:15:31.706Z,0
2017-09-02T01:16:12.154Z,0
2017-09-02T01:16:52.608Z,0
2017-09-02T01:17:33.068Z,0
2017-09-02T01:18:13.524Z,0
2017-09-02T01:18:53.987Z,0
2017-09-02T01:19:34.442Z,0
2017-09-02T01:20:14.894Z,0
2017-09-02T01:20:55.350Z,0
2017-09-02T01:21:35.812Z,0
2017-09-02T01:22:16.260Z,0
2017-09-02T01:22:56.730Z,0
2017-09-02T01:23:37.161Z,0
2017-09-02T01:24:17.621Z,0
2017-09-02T01:24:58.071Z,0
2017-09-02T01:25:38.526Z,0
2017-09-02T01:26:18.972Z,0
2017-09-02T01:26:59.422Z,0
2017-09-02T01:27:39.881Z,0
2017-09-02T01:28:20.335Z,0
2017-09-02T01:29:00.785Z,0
2017-09-02T01:29:41.250Z,0
2017-09-02T01:30:21.697Z,0
2017-09-02T01:31:02.145Z,0
2017-09-02T01:31:42.611Z,0
2017-09-02T01:32:23.181Z,0
2017-09-02T01:33:03.636Z,0
2017-09-02T01:33:44.093Z,0
2017-09-02T01:34:24.547Z,0
2017-09-02T01:35:04.996Z,0
2017-09-02T01:35:45.473Z,0
2017-09-02T01:36:25.928Z,0
2017-09-02T01:37:06.454Z,0
2017-09-02T01:37:46.904Z,0
2017-09-02T01:38:27.356Z,0
2017-09-02T01:39:07.860Z,0
2017-09-02T01:39:48.319Z,0
2017-09-02T01:40:28.774Z,0
2017-09-02T01:41:09.222Z,0
2017-09-02T01:41:49.681Z,0
2017-09-02T01:42:30.139Z,0
2017-09-02T01:43:10.592Z,0
2017-09-02T01:43:51.042Z,0
2017-09-02T01:44:31.498Z,0
2017-09-02T01:45:11.959Z,0
2017-09-02T01:45:52.410Z,0
2017-09-02T01:46:32.862Z,0
2017-09-02T01:47:13.321Z,0
2017-09-02T01:47:53.767Z,0
2017-09-02T01:48:34.223Z,0
2017-09-02T01:49:14.690Z,0
2017-09-02T01:49:55.143Z,0
2017-09-02T01:50:35.602Z,0
2017-09-02T01:51:16.059Z,0
2017-09-02T01:51:56.520Z,0
2017-09-02T01:52:36.988Z,0
2017-09-02T01:53:17.450Z,0
2017-09-02T01:53:57.910Z,0
2017-09-02T01:54:38.365Z,0
2017-09-02T01:55:18.825Z,0
2017-09-02T01:55:59.273Z,0
2017-09-02T01:56:39.728Z,0
2017-09-02T01:57:20.184Z,0
2017-09-02T01:58:00.637Z,0
2017-09-02T01:58:41.110Z,0
2017-09-02T01:59:21.565Z,0
2017-09-02T02:00:02.073Z,0
2017-09-02T02:00:42.527Z,0
2017-09-02T02:01:22.986Z,0
2017-09-02T02:02:03.571Z,0
2017-09-02T02:02:43.957Z,0
2017-09-02T02:03:24.413Z,0
2017-09-02T02:04:04.862Z,0
2017-09-02T02:04:45.315Z,0
2017-09-02T02:05:25.799Z,0
2017-09-02T02:06:06.257Z,0
2017-09-02T02:06:46.712Z,0
2017-09-02T02:07:27.200Z,0
2017-09-02T02:08:07.662Z,0
2017-09-02T02:08:48.130Z,0
2017-09-02T02:09:28.577Z,0
2017-09-02T02:10:09.066Z,0
2017-09-02T02:10:49.515Z,0
2017-09-02T02:11:29.968Z,0
2017-09-02T02:12:10.427Z,0
2017-09-02T02:12:50.874Z,0
2017-09-02T02:13:31.343Z,0
2017-09-02T02:14:11.876Z,0
2017-09-02T02:14:52.331Z,0
2017-09-02T02:15:32.783Z,0
2017-09-02T02:16:13.235Z,0
2017-09-02T02:16:53.690Z,0
2017-09-02T02:17:34.149Z,0
2017-09-02T02:18:14.601Z,0
2017-09-02T02:18:55.053Z,0
2017-09-02T02:19:35.503Z,0
2017-09-02T02:20:15.965Z,0
2017-09-02T02:20:56.417Z,0
2017-09-02T02:21:36.880Z,0
2017-09-02T02:22:17.338Z,0
2017-09-02T02:22:57.793Z,0
2017-09-02T02:23:38.246Z,0
2017-09-02T02:24:18.703Z,0
2017-09-02T02:24:59.237Z,0
2017-09-02T02:25:39.700Z,0
2017-09-02T02:26:20.154Z,0
2017-09-02T02:27:00.606Z,0
2017-09-02T02:27:41.063Z,0
2017-09-02T02:28:21.514Z,0
2017-09-02T02:29:01.970Z,0
2017-09-02T02:29:42.432Z,0
2017-09-02T02:30:22.895Z,0
2017-09-02T02:31:03.365Z,0
2017-09-02T02:31:43.830Z,0
2017-09-02T02:32:24.311Z,0
2017-09-02T02:33:04.761Z,0
2017-09-02T02:33:45.219Z,0
2017-09-02T02:34:25.677Z,0
2017-09-02T02:35:06.130Z,0
2017-09-02T02:35:46.587Z,0
2017-09-02T02:36:27.036Z,0
2017-09-02T02:37:07.496Z,0
2017-09-02T02:37:47.949Z,0
2017-09-02T02:38:28.397Z,0
2017-09-02T02:39:08.859Z,0
2017-09-02T02:39:49.420Z,0
2017-09-02T02:40:29.893Z,0
2017-09-02T02:41:10.357Z,0
2017-09-02T02:41:50.810Z,0
2017-09-02T02:42:31.263Z,0
2017-09-02T02:43:11.713Z,0
2017-09-02T02:43:52.164Z,0
2017-09-02T02:44:32.609Z,0
2017-09-02T02:45:13.069Z,0
2017-09-02T02:45:53.524Z,0
2017-09-02T02:46:33.982Z,0
2017-09-02T02:47:14.431Z,0
2017-09-02T02:47:54.883Z,0
2017-09-02T02:48:35.339Z,0
2017-09-02T02:49:15.820Z,0
2017-09-02T02:49:56.279Z,0
2017-09-02T02:50:36.738Z,0
2017-09-02T02:51:17.187Z,0
2017-09-02T02:51:57.646Z,0
2017-09-02T02:52:38.131Z,0
2017-09-02T02:53:18.559Z,0
2017-09-02T02:53:59.008Z,0
2017-09-02T02:54:39.486Z,0
2017-09-02T02:55:19.944Z,0
2017-09-02T02:56:00.404Z,0
2017-09-02T02:56:40.854Z,0
2017-09-02T02:57:21.426Z,0
2017-09-02T02:58:01.880Z,0
2017-09-02T02:58:42.329Z,0
2017-09-02T02:59:22.857Z,0
2017-09-02T03:00:03.322Z,0
2017-09-02T03:00:43.769Z,0
2017-09-02T03:03:11.868Z,0
2017-09-02T03:03:52.315Z,0
2017-09-02T03:04:32.774Z,0
2017-09-02T03:05:13.227Z,0
2017-09-02T03:05:53.681Z,0
2017-09-02T03:06:34.134Z,0
2017-09-02T03:07:14.582Z,0
2017-09-02T03:07:55.030Z,0
2017-09-02T03:08:35.496Z,0
2017-09-02T03:09:15.937Z,0
2017-09-02T03:09:56.396Z,0
2017-09-02T03:10:36.844Z,0
2017-09-02T03:11:17.294Z,0
2017-09-02T03:11:57.754Z,0
2017-09-02T03:12:38.196Z,0
2017-09-02T03:13:18.645Z,0
2017-09-02T03:13:59.096Z,0
2017-09-02T03:14:39.557Z,0
2017-09-02T03:15:19.999Z,0
2017-09-02T03:16:00.453Z,0
2017-09-02T03:16:40.899Z,0
2017-09-02T03:17:21.357Z,0
2017-09-02T03:18:01.809Z,0
2017-09-02T03:18:42.265Z,0
2017-09-02T03:19:22.724Z,0
2017-09-02T03:20:03.182Z,0
2017-09-02T03:20:43.641Z,0
2017-09-02T03:21:24.110Z,0
2017-09-02T03:22:04.563Z,0
2017-09-02T03:22:45.018Z,0
2017-09-02T03:23:25.480Z,0
2017-09-02T03:24:05.932Z,0
2017-09-02T03:24:46.373Z,0
2017-09-02T03:25:26.829Z,0
2017-09-02T03:26:07.362Z,0
2017-09-02T03:26:47.825Z,0
2017-09-02T03:27:28.285Z,0
2017-09-02T03:28:08.735Z,0
2017-09-02T03:28:49.186Z,0
2017-09-02T03:29:29.631Z,0
2017-09-02T03:30:10.087Z,0
2017-09-02T03:30:50.542Z,0
2017-09-02T03:31:30.988Z,0
2017-09-02T03:32:11.442Z,0
2017-09-02T03:32:51.895Z,0
2017-09-02T03:33:32.349Z,0
2017-09-02T03:34:12.807Z,0
2017-09-02T03:34:53.265Z,0
2017-09-02T03:35:33.712Z,0
2017-09-02T03:36:14.163Z,0
2017-09-02T03:36:54.618Z,0
2017-09-02T03:37:35.080Z,0
2017-09-02T03:40:08.268Z,0
2017-09-02T03:40:48.733Z,0
2017-09-02T03:41:29.187Z,0
2017-09-02T03:42:09.646Z,0
2017-09-02T03:42:50.123Z,0
2017-09-02T03:43:30.603Z,0
2017-09-02T03:44:11.012Z,0
2017-09-02T03:44:51.463Z,0
2017-09-02T03:45:31.919Z,0
2017-09-02T03:46:12.385Z,0
2017-09-02T03:46:52.828Z,0
2017-09-02T03:47:33.282Z,0
2017-09-02T03:48:13.737Z,0
2017-09-02T03:48:54.198Z,0
2017-09-02T03:49:34.656Z,0
2017-09-02T03:50:15.203Z,0
2017-09-02T03:50:55.672Z,0
2017-09-02T03:51:36.112Z,0
2017-09-02T03:54:09.184Z,0
2017-09-02T03:54:49.609Z,0
2017-09-02T03:55:30.058Z,0
2017-09-02T03:56:10.505Z,0
2017-09-02T03:56:50.954Z,0
2017-09-02T03:57:31.416Z,0
2017-09-02T03:58:11.866Z,0
2017-09-02T03:58:52.322Z,0
2017-09-02T03:59:32.763Z,0
2017-09-02T04:00:13.206Z,0
2017-09-02T04:00:53.656Z,0
2017-09-02T04:01:34.109Z,0
2017-09-02T04:02:14.563Z,0
2017-09-02T04:02:55.023Z,0
2017-09-02T04:03:35.476Z,0
2017-09-02T04:04:15.999Z,0
2017-09-02T04:04:56.455Z,0
2017-09-02T04:05:36.914Z,0
2017-09-02T04:06:17.371Z,0
2017-09-02T04:06:57.822Z,0
2017-09-02T04:07:38.279Z,0
2017-09-02T04:08:18.736Z,0
2017-09-02T04:08:59.186Z,0
2017-09-02T04:09:39.781Z,0
2017-09-02T04:10:20.169Z,0
2017-09-02T04:11:00.620Z,0
2017-09-02T04:11:41.078Z,0
2017-09-02T04:12:21.628Z,0
2017-09-02T04:13:02.089Z,0
2017-09-02T04:13:42.542Z,0
2017-09-02T04:14:22.986Z,0
2017-09-02T04:15:03.440Z,0
2017-09-02T04:15:43.901Z,0
2017-09-02T04:16:24.354Z,0
2017-09-02T04:17:04.823Z,0
2017-09-02T04:17:45.288Z,0
2017-09-02T04:18:25.748Z,0
2017-09-02T04:19:06.241Z,0
2017-09-02T04:19:46.675Z,0
2017-09-02T04:20:27.126Z,0
2017-09-02T04:21:07.580Z,0
2017-09-02T04:21:48.027Z,0
2017-09-02T04:22:28.479Z,0
2017-09-02T04:23:08.927Z,0
2017-09-02T04:23:49.376Z,0
2017-09-02T04:24:29.829Z,0
2017-09-02T04:25:10.279Z,0
2017-09-02T04:25:50.745Z,0
2017-09-02T04:26:31.196Z,0
2017-09-02T04:27:11.657Z,0
2017-09-02T04:27:52.113Z,0
2017-09-02T04:28:32.570Z,0
2017-09-02T04:29:13.030Z,0
2017-09-02T04:29:53.502Z,0
2017-09-02T04:30:33.962Z,0
2017-09-02T04:31:14.419Z,0
2017-09-02T04:31:54.880Z,0
2017-09-02T04:32:35.339Z,0
2017-09-02T04:33:15.809Z,0
2017-09-02T04:33:56.266Z,0
2017-09-02T04:34:36.718Z,0
2017-09-02T04:35:17.179Z,0
2017-09-02T04:35:57.622Z,0
2017-09-02T04:36:38.079Z,0
2017-09-02T04:37:18.532Z,0
2017-09-02T04:37:58.987Z,0
2017-09-02T04:38:39.443Z,0
2017-09-02T04:39:19.885Z,0
2017-09-02T04:40:00.398Z,0
2017-09-02T04:40:40.858Z,0
2017-09-02T04:41:21.310Z,0
2017-09-02T04:42:01.766Z,0
2017-09-02T04:42:42.220Z,0
2017-09-02T04:43:22.672Z,0
2017-09-02T04:44:03.148Z,0
2017-09-02T04:44:43.585Z,0
2017-09-02T04:45:24.038Z,0
2017-09-02T04:46:04.495Z,0
2017-09-02T04:46:44.962Z,0
2017-09-02T04:47:25.420Z,0
2017-09-02T04:48:05.879Z,0
2017-09-02T04:48:46.340Z,0
2017-09-02T04:49:26.796Z,0
2017-09-02T04:50:07.265Z,0
2017-09-02T04:50:47.719Z,0
2017-09-02T04:51:28.177Z,0
2017-09-02T04:52:08.637Z,0
2017-09-02T04:52:49.093Z,0
2017-09-02T04:53:29.551Z,0
2017-09-02T04:54:09.999Z,0
2017-09-02T04:54:50.485Z,0
2017-09-02T04:55:31.005Z,0
2017-09-02T04:56:11.457Z,0
2017-09-02T04:56:51.926Z,0
2017-09-02T04:57:32.364Z,0
2017-09-02T04:58:12.824Z,0
2017-09-02T04:58:53.281Z,0
2017-09-02T04:59:33.741Z,0
2017-09-02T05:00:14.222Z,0
2017-09-02T05:00:54.681Z,0
2017-09-02T05:01:35.127Z,0
2017-09-02T05:02:15.587Z,0
2017-09-02T05:02:56.035Z,0
2017-09-02T05:03:36.496Z,0
2017-09-02T05:04:16.957Z,0
2017-09-02T05:04:57.409Z,0
2017-09-02T05:05:37.872Z,0
2017-09-02T05:06:18.328Z,0
2017-09-02T05:06:58.776Z,0
2017-09-02T05:07:39.231Z,0
2017-09-02T05:08:19.688Z,0
2017-09-02T05:09:00.163Z,0
2017-09-02T05:09:40.656Z,0
2017-09-02T05:10:21.107Z,0
2017-09-02T05:11:01.563Z,0
2017-09-02T05:11:42.017Z,0
2017-09-02T05:12:22.461Z,0
2017-09-02T05:13:02.917Z,0
2017-09-02T05:13:43.369Z,0
2017-09-02T05:14:23.822Z,0
2017-09-02T05:15:04.272Z,0
2017-09-02T05:15:44.715Z,0
2017-09-02T05:16:25.169Z,0
2017-09-02T05:17:05.616Z,0
2017-09-02T05:17:46.059Z,0
2017-09-02T05:18:26.513Z,0
2017-09-02T05:19:06.967Z,0
2017-09-02T05:19:47.416Z,0
2017-09-02T05:20:27.870Z,0
2017-09-02T05:21:08.338Z,0
2017-09-02T05:21:48.794Z,0
2017-09-02T05:24:06.772Z,0
2017-09-02T05:24:47.224Z,0
2017-09-02T05:25:27.677Z,0
2017-09-02T05:26:08.127Z,0
2017-09-02T05:26:48.579Z,0
2017-09-02T05:27:29.034Z,0
2017-09-02T05:28:09.491Z,0
2017-09-02T05:28:49.941Z,0
2017-09-02T05:29:30.431Z,0
2017-09-02T05:30:10.888Z,0
2017-09-02T05:30:51.340Z,0
2017-09-02T05:31:31.807Z,0
2017-09-02T05:32:12.255Z,0
2017-09-02T05:32:52.712Z,0
2017-09-02T05:33:33.158Z,0
2017-09-02T05:34:13.608Z,0
2017-09-02T05:34:54.056Z,0
2017-09-02T05:35:34.507Z,0
2017-09-02T05:36:14.968Z,0
2017-09-02T05:36:55.424Z,0
2017-09-02T05:39:28.480Z,0
2017-09-02T05:40:08.934Z,0
2017-09-02T05:40:49.391Z,0
2017-09-02T05:41:29.856Z,0
2017-09-02T05:42:10.305Z,0
2017-09-02T05:42:50.763Z,0
2017-09-02T05:43:31.215Z,0
2017-09-02T05:44:11.677Z,0
2017-09-02T05:44:52.118Z,0
2017-09-02T05:45:32.568Z,0
2017-09-02T05:46:13.021Z,0
2017-09-02T05:46:53.473Z,0
2017-09-02T05:47:33.923Z,0
2017-09-02T05:48:14.396Z,0
2017-09-02T05:48:54.843Z,0
2017-09-02T05:49:35.285Z,0
2017-09-02T05:50:15.759Z,0
2017-09-02T05:50:56.210Z,0
2017-09-02T05:51:36.651Z,0
2017-09-02T05:52:17.102Z,0
2017-09-02T05:52:57.549Z,0
2017-09-02T05:53:37.992Z,0
2017-09-02T05:54:18.443Z,0
2017-09-02T05:54:58.872Z,0
2017-09-02T05:55:39.318Z,0
2017-09-02T05:56:19.779Z,0
2017-09-02T05:57:00.217Z,0
2017-09-02T05:57:40.659Z,0
2017-09-02T06:00:08.724Z,0
2017-09-02T06:00:49.179Z,0
2017-09-02T06:01:29.633Z,0
2017-09-02T06:02:10.092Z,5
2017-09-02T06:02:50.542Z,5
2017-09-02T06:03:30.999Z,5
2017-09-02T06:04:11.469Z,5
2017-09-02T06:04:51.927Z,5
2017-09-02T06:05:32.361Z,5
2017-09-02T06:06:12.816Z,5
2017-09-02T06:06:53.265Z,5
2017-09-02T06:07:33.733Z,5
2017-09-02T06:08:14.173Z,5
2017-09-02T06:08:54.622Z,5
2017-09-02T06:09:35.071Z,5
2017-09-02T06:10:15.521Z,5
2017-09-02T06:10:55.970Z,5
2017-09-02T06:11:36.439Z,5
2017-09-02T06:12:16.913Z,5
2017-09-02T06:12:57.368Z,5
2017-09-02T06:13:37.826Z,5
2017-09-02T06:14:18.253Z,5
2017-09-02T06:14:58.709Z,5
2017-09-02T06:15:39.160Z,5
2017-09-02T06:16:19.622Z,5
2017-09-02T06:17:00.073Z,5
2017-09-02T06:17:40.530Z,5
2017-09-02T06:18:20.972Z,5
2017-09-02T06:19:01.423Z,5
2017-09-02T06:19:41.878Z,5
2017-09-02T06:20:22.331Z,5
2017-09-02T06:21:02.781Z,5
2017-09-02T06:21:43.238Z,5
2017-09-02T06:22:23.699Z,5
2017-09-02T06:23:04.157Z,5
2017-09-02T06:23:44.613Z,5
2017-09-02T06:24:25.075Z,5
2017-09-02T06:25:05.538Z,5
2017-09-02T06:25:45.991Z,5
2017-09-02T06:26:26.471Z,5
2017-09-02T06:27:06.914Z,5
2017-09-02T06:27:47.373Z,5
2017-09-02T06:28:27.838Z,5
2017-09-02T06:29:08.313Z,5
2017-09-02T06:29:48.765Z,5
2017-09-02T06:30:29.261Z,5
2017-09-02T06:31:09.715Z,5
2017-09-02T06:31:50.165Z,5
2017-09-02T06:34:08.152Z,5
2017-09-02T06:34:48.609Z,5
2017-09-02T06:35:29.058Z,5
2017-09-02T06:36:09.511Z,5
2017-09-02T06:36:49.969Z,5
2017-09-02T06:37:30.419Z,5
2017-09-02T06:38:10.870Z,5
2017-09-02T06:38:51.328Z,5
2017-09-02T06:39:31.782Z,5
2017-09-02T06:40:12.238Z,5
2017-09-02T06:40:52.695Z,5
2017-09-02T06:41:33.150Z,5
2017-09-02T06:42:13.611Z,5
2017-09-02T06:42:54.068Z,5
2017-09-02T06:43:34.513Z,5
2017-09-02T06:44:14.966Z,5
2017-09-02T06:44:55.406Z,5
2017-09-02T06:45:35.850Z,5
2017-09-02T06:46:16.304Z,5
2017-09-02T06:46:56.763Z,10
2017-09-02T06:47:37.210Z,10
2017-09-02T06:48:17.661Z,10
2017-09-02T06:48:58.127Z,10
2017-09-02T06:49:38.591Z,10
2017-09-02T06:50:19.057Z,10
2017-09-02T06:50:59.493Z,10
2017-09-02T06:51:39.930Z,10
2017-09-02T06:52:20.384Z,10
2017-09-02T06:53:00.831Z,10
2017-09-02T06:53:41.280Z,10
2017-09-02T06:54:21.771Z,10
2017-09-02T06:55:02.221Z,10
2017-09-02T06:55:42.679Z,10
2017-09-02T06:56:23.124Z,10
2017-09-02T06:57:03.587Z,10
2017-09-02T06:57:44.029Z,10
2017-09-02T06:58:24.484Z,10
2017-09-02T06:59:04.936Z,10
2017-09-02T06:59:45.397Z,10
2017-09-02T07:00:25.850Z,10
2017-09-02T07:01:06.399Z,10
2017-09-02T07:01:46.845Z,10
2017-09-02T07:02:27.307Z,10
2017-09-02T07:03:07.831Z,10
2017-09-02T07:03:48.257Z,10
2017-09-02T07:04:28.762Z,10
2017-09-02T07:05:09.225Z,10
2017-09-02T07:05:49.700Z,10
2017-09-02T07:06:30.295Z,10
2017-09-02T07:07:10.759Z,10
2017-09-02T07:07:51.196Z,10
2017-09-02T07:08:31.731Z,10
2017-09-02T07:09:12.188Z,10
2017-09-02T07:09:52.647Z,10
2017-09-02T07:10:33.107Z,10
2017-09-02T07:11:13.543Z,10
2017-09-02T07:11:53.994Z,10
2017-09-02T07:12:34.487Z,10
2017-09-02T07:13:14.895Z,10
2017-09-02T07:13:55.348Z,10
2017-09-02T07:14:35.801Z,10
2017-09-02T07:15:16.253Z,10
2017-09-02T07:15:56.706Z,10
2017-09-02T07:16:37.160Z,10
2017-09-02T07:17:17.637Z,10
2017-09-02T07:19:50.698Z,15
2017-09-02T07:20:31.158Z,15
2017-09-02T07:21:11.603Z,15
2017-09-02T07:21:52.046Z,15
2017-09-02T07:22:32.492Z,15
2017-09-02T07:23:12.985Z,15
2017-09-02T07:23:53.422Z,15
2017-09-02T07:24:33.873Z,15
2017-09-02T07:25:14.319Z,15
2017-09-02T07:25:54.772Z,15
2017-09-02T07:26:35.226Z,15
2017-09-02T07:27:15.682Z,15
2017-09-02T07:27:56.127Z,15
2017-09-02T07:28:36.581Z,15
2017-09-02T07:29:17.089Z,15
2017-09-02T07:29:57.535Z,15
2017-09-02T07:30:37.982Z,15
2017-09-02T07:31:18.431Z,20
2017-09-02T07:31:58.914Z,20
2017-09-02T07:32:39.417Z,20
2017-09-02T07:33:19.818Z,20
2017-09-02T07:34:00.267Z,20
2017-09-02T07:34:40.721Z,20
2017-09-02T07:35:21.174Z,20
2017-09-02T07:36:01.658Z,20
2017-09-02T07:36:42.079Z,20
2017-09-02T07:37:22.544Z,20
2017-09-02T07:38:02.988Z,20
2017-09-02T07:38:43.445Z,20
2017-09-02T07:39:23.925Z,20
2017-09-02T07:40:04.371Z,20
2017-09-02T07:40:44.833Z,20
2017-09-02T07:41:25.288Z,20
2017-09-02T07:42:05.748Z,20
2017-09-02T07:42:46.207Z,20
2017-09-02T07:45:04.181Z,25
2017-09-02T07:45:44.631Z,25
2017-09-02T07:46:25.088Z,25
2017-09-02T07:47:05.550Z,25
2017-09-02T07:47:46.003Z,25
2017-09-02T07:48:26.545Z,25
2017-09-02T07:49:06.996Z,25
2017-09-02T07:49:47.486Z,25
2017-09-02T07:50:27.936Z,25
2017-09-02T07:51:08.389Z,25
2017-09-02T07:51:48.842Z,25
2017-09-02T07:52:29.295Z,25
2017-09-02T07:53:09.747Z,25
2017-09-02T07:53:50.195Z,30
2017-09-02T07:54:30.641Z,30
2017-09-02T07:55:11.094Z,30
2017-09-02T07:55:51.551Z,30
2017-09-02T07:56:32.008Z,30
2017-09-02T07:57:12.461Z,30
2017-09-02T07:57:52.904Z,30
2017-09-02T07:58:33.393Z,30
2017-09-02T07:59:13.866Z,30
2017-09-02T07:59:54.315Z,30
2017-09-02T08:00:34.749Z,35
2017-09-02T08:01:15.207Z,35
2017-09-02T08:01:55.683Z,35
2017-09-02T08:02:36.128Z,35
2017-09-02T08:03:16.584Z,35
2017-09-02T08:03:57.036Z,35
2017-09-02T08:04:37.486Z,35
2017-09-02T08:05:17.939Z,35
2017-09-02T08:07:50.988Z,40
2017-09-02T08:08:31.444Z,40
2017-09-02T08:09:11.949Z,40
2017-09-02T08:09:52.412Z,45
2017-09-02T08:10:32.859Z,45
2017-09-02T08:11:13.323Z,45
2017-09-02T08:11:53.772Z,45
2017-09-02T08:12:34.232Z,45
2017-09-02T08:13:14.687Z,45
2017-09-02T08:13:55.142Z,45
2017-09-02T08:14:35.595Z,45
2017-09-02T08:15:16.075Z,45
2017-09-02T08:15:56.524Z,45
2017-09-02T08:16:36.980Z,45
2017-09-02T08:17:17.432Z,45
2017-09-02T08:17:57.883Z,45
2017-09-02T08:18:38.329Z,45
2017-09-02T08:19:18.784Z,50
2017-09-02T08:19:59.226Z,50
2017-09-02T08:20:39.671Z,50
2017-09-02T08:21:20.121Z,50
2017-09-02T08:22:00.576Z,55
2017-09-02T08:22:41.020Z,55
2017-09-02T08:23:21.470Z,55
2017-09-02T08:24:01.918Z,60
2017-09-02T08:24:42.372Z,65
2017-09-02T08:25:22.818Z,110
2017-09-02T08:26:03.268Z,120
2017-09-02T08:26:43.720Z,100
2017-09-02T08:27:24.170Z,120
2017-09-02T08:28:04.620Z,100
2017-09-02T08:28:45.074Z,95
2017-09-02T08:29:25.534Z,80
2017-09-02T08:30:05.988Z,90
2017-09-02T08:30:46.443Z,85
2017-09-02T08:31:27.031Z,100
2017-09-02T08:32:07.486Z,105
2017-09-02T08:32:47.939Z,125
2017-09-02T08:33:28.394Z,135
2017-09-02T08:34:08.829Z,135
2017-09-02T08:34:49.276Z,135
2017-09-02T08:35:29.722Z,125
2017-09-02T08:36:10.190Z,130
2017-09-02T08:36:50.643Z,130
2017-09-02T08:37:31.097Z,115
2017-09-02T08:38:11.547Z,125
2017-09-02T08:38:52.009Z,115
2017-09-02T08:39:32.509Z,120
2017-09-02T08:40:12.953Z,105
2017-09-02T08:40:53.413Z,120
2017-09-02T08:41:33.864Z,120
2017-09-02T08:42:14.316Z,120
2017-09-02T08:42:54.775Z,135
2017-09-02T08:43:35.223Z,140
2017-09-02T08:44:15.664Z,145
2017-09-02T08:44:56.141Z,145
2017-09-02T08:45:36.593Z,145
2017-09-02T08:46:17.046Z,155
2017-09-02T08:46:57.512Z,155
2017-09-02T08:47:37.966Z,155
2017-09-02T08:48:18.427Z,150
2017-09-02T08:48:58.879Z,150
2017-09-02T08:49:39.327Z,150
2017-09-02T08:50:19.775Z,160
2017-09-02T08:51:00.224Z,155
2017-09-02T08:51:40.669Z,160
2017-09-02T08:52:21.161Z,155
2017-09-02T08:53:01.618Z,150
2017-09-02T08:53:42.072Z,140
2017-09-02T08:54:22.527Z,140
2017-09-02T08:55:02.971Z,150
2017-09-02T08:55:43.428Z,155
2017-09-02T08:56:23.881Z,150
2017-09-02T08:57:04.323Z,140
2017-09-02T08:57:44.769Z,135
2017-09-02T08:58:25.246Z,125
2017-09-02T08:59:05.764Z,115
2017-09-02T08:59:46.227Z,100
2017-09-02T09:00:26.694Z,110
2017-09-02T09:01:07.147Z,110
2017-09-02T09:01:47.594Z,100
2017-09-02T09:02:28.054Z,90
2017-09-02T09:03:08.504Z,85
2017-09-02T09:03:48.948Z,75
2017-09-02T09:04:29.394Z,70
2017-09-02T09:05:09.841Z,70
2017-09-02T09:05:50.297Z,70
2017-09-02T09:06:30.750Z,70
2017-09-02T09:07:11.202Z,70
2017-09-02T09:07:51.655Z,70
2017-09-02T09:08:32.102Z,70
2017-09-02T09:09:12.655Z,70
2017-09-02T09:09:53.107Z,70
2017-09-02T09:10:33.570Z,70
2017-09-02T09:11:14.026Z,65
2017-09-02T09:11:54.486Z,65
2017-09-02T09:12:34.952Z,65
2017-09-02T09:13:15.410Z,65
2017-09-02T09:13:55.867Z,70
2017-09-02T09:14:36.316Z,65
2017-09-02T09:15:16.762Z,65
2017-09-02T09:15:57.204Z,65
2017-09-02T09:16:37.704Z,65
2017-09-02T09:17:18.152Z,65
2017-09-02T09:17:58.609Z,65
2017-09-02T09:18:39.063Z,70
2017-09-02T09:19:19.514Z,65
2017-09-02T09:19:59.966Z,65
2017-09-02T09:20:40.428Z,65
2017-09-02T09:21:20.894Z,75
2017-09-02T09:22:01.335Z,70
2017-09-02T09:22:41.849Z,70
2017-09-02T09:23:22.295Z,70
2017-09-02T09:24:02.747Z,75
2017-09-02T09:24:43.203Z,70
2017-09-02T09:25:23.659Z,65
2017-09-02T09:26:04.122Z,65
2017-09-02T09:26:44.576Z,60
2017-09-02T09:27:25.029Z,60
2017-09-02T09:28:05.486Z,60
2017-09-02T09:28:45.938Z,60
2017-09-02T09:29:26.406Z,60
2017-09-02T09:30:06.864Z,55
2017-09-02T09:30:47.322Z,55
2017-09-02T09:31:27.776Z,55
2017-09-02T09:32:08.238Z,80
2017-09-02T09:32:48.697Z,60
2017-09-02T09:33:29.155Z,50
2017-09-02T09:34:09.613Z,50
2017-09-02T09:34:50.072Z,50
2017-09-02T09:35:30.521Z,55
2017-09-02T09:36:10.980Z,55
2017-09-02T09:36:51.432Z,55
2017-09-02T09:37:31.880Z,55
2017-09-02T09:38:12.320Z,50
2017-09-02T09:38:52.771Z,50
2017-09-02T09:39:33.210Z,50
2017-09-02T09:40:13.676Z,50
2017-09-02T09:40:54.114Z,50
2017-09-02T09:41:34.567Z,50
2017-09-02T09:42:15.034Z,50
2017-09-02T09:42:55.488Z,50
2017-09-02T09:43:35.940Z,50
2017-09-02T09:44:16.392Z,45
2017-09-02T09:44:56.844Z,45
2017-09-02T09:45:37.303Z,45
2017-09-02T09:46:17.768Z,45
2017-09-02T09:46:58.223Z,45
2017-09-02T09:47:38.692Z,45
2017-09-02T09:48:19.128Z,50
2017-09-02T09:48:59.578Z,50
2017-09-02T09:49:40.032Z,50
2017-09-02T09:50:20.487Z,50
2017-09-02T09:51:00.973Z,50
2017-09-02T09:51:41.430Z,50
2017-09-02T09:52:21.895Z,50
2017-09-02T09:53:02.357Z,45
2017-09-02T09:53:42.817Z,45
2017-09-02T09:54:23.275Z,45
2017-09-02T09:55:03.731Z,45
2017-09-02T09:55:44.184Z,45
2017-09-02T09:56:24.638Z,45
2017-09-02T09:57:05.087Z,45
2017-09-02T09:57:45.551Z,40
2017-09-02T09:58:25.997Z,40
2017-09-02T09:59:06.440Z,40
2017-09-02T09:59:46.893Z,40
2017-09-02T10:00:27.430Z,35
2017-09-02T10:01:07.894Z,35
2017-09-02T10:01:48.342Z,35
2017-09-02T10:02:28.855Z,35
2017-09-02T10:03:09.320Z,35
2017-09-02T10:03:49.778Z,30
2017-09-02T10:04:30.261Z,30
2017-09-02T10:05:10.716Z,30
2017-09-02T10:05:51.163Z,30
2017-09-02T10:06:31.644Z,30
2017-09-02T10:07:12.107Z,30
2017-09-02T10:07:52.569Z,30
2017-09-02T10:08:33.022Z,35
2017-09-02T10:09:13.470Z,35